createdAt,value
2022-11-24T00:01:40.941Z,24.50
2022-11-24T00:04:16.413Z,26.30
2022-11-24T00:06:49.462Z,25.10
2022-11-24T00:09:23.159Z,24.10
2022-11-24T00:11:56.380Z,23.70
2022-11-24T00:14:29.402Z,25.30
2022-11-24T00:17:02.530Z,24.50
2022-11-24T00:19:35.920Z,24.70
2022-11-24T00:22:09.700Z,26.60
2022-11-24T00:24:42.678Z,25.50
2022-11-24T00:27:16.303Z,23.60
2022-11-24T00:29:50.445Z,28.00
2022-11-24T00:32:24.257Z,27.20
2022-11-24T00:34:57.077Z,31.30
2022-11-24T00:37:30.275Z,29.90
2022-11-24T00:40:03.399Z,27.80
2022-11-24T00:42:36.645Z,25.90
2022-11-24T00:45:14.115Z,22.40
2022-11-24T00:47:47.625Z,24.80
2022-11-24T00:50:21.631Z,24.50
2022-11-24T00:52:54.605Z,25.70
2022-11-24T00:55:27.816Z,26.10
2022-11-24T00:58:00.916Z,26.40
2022-11-24T01:00:33.984Z,23.30
2022-11-24T01:03:08.040Z,25.80
2022-11-24T01:05:42.812Z,25.40
2022-11-24T01:08:16.547Z,29.10
2022-11-24T01:10:50.427Z,24.20
2022-11-24T01:13:23.616Z,26.10
2022-11-24T01:15:57.174Z,29.50
2022-11-24T01:18:30.427Z,25.40
2022-11-24T01:21:10.056Z,28.20
2022-11-24T01:23:44.218Z,25.00
2022-11-24T01:26:20.316Z,27.10
2022-11-24T01:28:59.311Z,28.90
2022-11-24T01:31:33.214Z,27.40
2022-11-24T01:34:06.840Z,25.60
2022-11-24T01:36:41.031Z,25.00
2022-11-24T01:39:14.869Z,27.20
2022-11-24T01:41:48.030Z,29.60
2022-11-24T01:44:32.072Z,27.80
2022-11-24T01:47:23.420Z,28.90
2022-11-24T01:50:01.603Z,28.50
2022-11-24T01:52:41.623Z,26.20
2022-11-24T01:55:21.062Z,25.90
2022-11-24T01:58:00.882Z,25.30
2022-11-24T02:00:35.986Z,23.80
2022-11-24T02:03:10.222Z,24.40
2022-11-24T02:05:51.259Z,24.80
2022-11-24T02:08:31.907Z,27.20
2022-11-24T02:11:07.727Z,27.80
2022-11-24T02:13:45.048Z,25.50
2022-11-24T02:16:18.279Z,27.40
2022-11-24T02:18:52.007Z,24.90
2022-11-24T02:21:25.349Z,26.10
2022-11-24T02:24:11.820Z,28.10
2022-11-24T02:26:49.127Z,26.60
2022-11-24T02:29:22.745Z,24.40
2022-11-24T02:32:00.973Z,26.50
2022-11-24T02:34:34.318Z,26.80
2022-11-24T02:37:07.863Z,24.40
2022-11-24T02:39:41.417Z,24.40
2022-11-24T02:42:17.298Z,26.70
2022-11-24T02:44:56.876Z,26.50
2022-11-24T02:47:31.631Z,24.60
2022-11-24T02:50:04.831Z,24.70
2022-11-24T02:52:37.881Z,28.00
2022-11-24T02:55:12.197Z,25.50
2022-11-24T02:57:47.403Z,25.40
2022-11-24T03:00:23.501Z,27.80
2022-11-24T03:02:56.595Z,21.80
2022-11-24T03:05:29.652Z,21.70
2022-11-24T03:08:02.668Z,22.60
2022-11-24T03:10:35.642Z,25.40
2022-11-24T03:13:08.746Z,24.60
2022-11-24T03:15:41.901Z,25.10
2022-11-24T03:18:15.559Z,23.00
2022-11-24T03:20:48.632Z,23.30
2022-11-24T03:23:21.693Z,27.40
2022-11-24T03:25:55.448Z,25.10
2022-11-24T03:28:28.661Z,25.80
2022-11-24T03:31:02.258Z,25.70
2022-11-24T03:33:35.687Z,23.10
2022-11-24T03:36:13.238Z,23.10
2022-11-24T03:38:46.907Z,25.10
2022-11-24T03:41:19.893Z,24.50
2022-11-24T03:43:53.128Z,22.30
2022-11-24T03:46:26.168Z,21.30
2022-11-24T03:48:59.254Z,22.60
2022-11-24T03:51:32.269Z,23.50
2022-11-24T03:54:05.343Z,22.70
2022-11-24T03:56:38.960Z,22.90
2022-11-24T03:59:15.231Z,23.10
2022-11-24T04:01:48.775Z,23.10
2022-11-24T04:04:22.007Z,19.90
2022-11-24T04:06:55.094Z,21.70
2022-11-24T04:09:28.129Z,21.40
2022-11-24T04:12:18.640Z,20.80
2022-11-24T04:14:51.766Z,25.00
2022-11-24T04:17:24.983Z,22.70
2022-11-24T04:19:58.121Z,22.60
2022-11-24T04:22:31.669Z,23.00
2022-11-24T04:25:05.646Z,23.40
2022-11-24T04:27:40.792Z,22.50
2022-11-24T04:30:15.444Z,21.00
2022-11-24T04:32:48.511Z,22.80
2022-11-24T04:35:23.219Z,21.90
2022-11-24T04:37:56.524Z,23.00
2022-11-24T04:40:30.501Z,22.90
2022-11-24T04:43:03.939Z,21.60
2022-11-24T04:45:37.044Z,21.30
2022-11-24T04:48:10.578Z,24.80
2022-11-24T04:50:44.161Z,24.20
2022-11-24T04:53:18.115Z,22.50
2022-11-24T04:55:51.633Z,22.10
2022-11-24T04:58:25.891Z,21.60
2022-11-24T05:01:00.334Z,22.10
2022-11-24T05:03:33.582Z,21.90
2022-11-24T05:06:09.346Z,21.40
2022-11-24T05:08:42.234Z,22.90
2022-11-24T05:11:15.784Z,22.30
2022-11-24T05:13:51.093Z,23.20
2022-11-24T05:16:24.121Z,23.50
2022-11-24T05:18:57.106Z,23.40
2022-11-24T05:21:31.240Z,20.80
2022-11-24T05:24:04.663Z,22.60
2022-11-24T05:26:38.456Z,21.70
2022-11-24T05:29:11.776Z,21.00
2022-11-24T05:31:45.013Z,24.50
2022-11-24T05:34:18.670Z,23.70
2022-11-24T05:36:54.695Z,21.30
2022-11-24T05:39:28.128Z,20.80
2022-11-24T05:42:23.189Z,22.20
2022-11-24T05:44:57.809Z,24.10
2022-11-24T05:47:31.342Z,21.40
2022-11-24T05:50:05.185Z,22.50
2022-11-24T05:52:39.041Z,22.70
2022-11-24T05:55:16.192Z,23.10
2022-11-24T05:57:49.146Z,21.70
2022-11-24T06:00:23.283Z,22.20
2022-11-24T06:02:58.437Z,21.30
2022-11-24T06:05:32.607Z,22.10
2022-11-24T06:08:06.022Z,22.50
2022-11-24T06:10:38.752Z,20.50
2022-11-24T06:13:12.396Z,22.10
2022-11-24T06:15:45.898Z,22.10
2022-11-24T06:18:19.041Z,21.10
2022-11-24T06:21:09.753Z,22.20
2022-11-24T06:23:45.393Z,22.80
2022-11-24T06:26:19.100Z,22.90
2022-11-24T06:28:52.674Z,22.00
2022-11-24T06:31:26.039Z,21.90
2022-11-24T06:34:00.993Z,23.40
2022-11-24T06:36:34.007Z,21.30
2022-11-24T06:39:08.221Z,21.20
2022-11-24T06:41:42.056Z,23.70
2022-11-24T06:44:15.552Z,21.80
2022-11-24T06:46:49.364Z,21.90
2022-11-24T06:49:22.588Z,22.10
2022-11-24T06:51:57.237Z,21.50
2022-11-24T06:54:31.063Z,21.10
2022-11-24T06:57:04.992Z,20.70
2022-11-24T06:59:38.816Z,22.00
2022-11-24T07:02:13.795Z,22.20
2022-11-24T07:04:46.880Z,20.80
2022-11-24T07:07:20.307Z,21.60
2022-11-24T07:09:53.413Z,21.60
2022-11-24T07:12:26.655Z,22.60
2022-11-24T07:14:59.540Z,21.50
2022-11-24T07:17:32.820Z,22.10
2022-11-24T07:20:06.659Z,21.40
2022-11-24T07:22:40.392Z,24.30
2022-11-24T07:25:14.932Z,22.50
2022-11-24T07:27:48.271Z,22.10
2022-11-24T07:30:22.044Z,22.10
2022-11-24T07:32:59.820Z,20.90
2022-11-24T07:35:34.028Z,20.30
2022-11-24T07:38:07.602Z,22.90
2022-11-24T07:40:41.078Z,23.70
2022-11-24T07:43:19.808Z,23.10
2022-11-24T07:45:57.988Z,22.70
2022-11-24T07:48:32.147Z,19.80
2022-11-24T07:51:06.754Z,23.20
2022-11-24T07:53:40.905Z,21.40
2022-11-24T07:56:14.698Z,19.60
2022-11-24T07:58:52.663Z,23.50
2022-11-24T08:01:26.834Z,23.00
2022-11-24T08:04:00.150Z,23.10
2022-11-24T08:06:39.699Z,22.20
2022-11-24T08:09:13.895Z,24.30
2022-11-24T08:11:47.477Z,22.00
2022-11-24T08:14:20.379Z,21.50
2022-11-24T08:16:54.126Z,21.20
2022-11-24T08:19:28.659Z,22.90
2022-11-24T08:22:02.726Z,22.70
2022-11-24T08:24:36.202Z,24.30
2022-11-24T08:27:10.207Z,26.20
2022-11-24T08:29:44.943Z,22.40
2022-11-24T08:32:22.236Z,22.80
2022-11-24T08:34:59.693Z,23.20
2022-11-24T08:37:42.095Z,20.50
2022-11-24T08:40:17.210Z,22.00
2022-11-24T08:42:50.401Z,22.00
2022-11-24T08:45:25.646Z,20.70
2022-11-24T08:48:00.343Z,21.00
2022-11-24T08:50:35.845Z,21.70
2022-11-24T08:53:09.278Z,20.50
2022-11-24T08:55:43.167Z,23.00
2022-11-24T08:58:16.845Z,22.70
2022-11-24T09:00:51.115Z,21.70
2022-11-24T09:03:24.302Z,22.20
2022-11-24T09:05:59.104Z,21.70
2022-11-24T09:08:34.551Z,22.50
2022-11-24T09:11:12.284Z,20.30
2022-11-24T09:13:46.208Z,20.90
2022-11-24T09:16:22.425Z,20.60
2022-11-24T09:19:02.721Z,19.80
2022-11-24T09:21:39.325Z,21.70
2022-11-24T09:24:16.777Z,20.10
2022-11-24T09:26:50.900Z,22.80
2022-11-24T09:29:24.508Z,21.50
2022-11-24T09:32:02.047Z,22.40
2022-11-24T09:34:38.061Z,21.80
2022-11-24T09:37:12.530Z,18.50
2022-11-24T09:39:46.473Z,21.20
2022-11-24T09:42:32.151Z,20.60
2022-11-24T09:45:41.996Z,21.90
2022-11-24T09:48:32.414Z,21.80
2022-11-24T09:51:11.932Z,22.00
2022-11-24T09:53:53.182Z,22.20
2022-11-24T09:56:30.300Z,22.10
2022-11-24T09:59:12.209Z,23.70
2022-11-24T10:01:48.672Z,21.30
2022-11-24T10:04:28.134Z,20.50
2022-11-24T10:07:17.626Z,20.10
2022-11-24T10:10:05.207Z,20.10
2022-11-24T10:12:59.388Z,21.90
2022-11-24T10:15:46.566Z,20.30
2022-11-24T10:18:47.176Z,22.90
2022-11-24T10:21:41.308Z,20.90
2022-11-24T10:24:50.137Z,19.90
2022-11-24T10:27:31.720Z,22.60
2022-11-24T10:30:13.373Z,20.70
2022-11-24T10:32:51.403Z,20.60
2022-11-24T10:35:36.879Z,20.60
2022-11-24T10:38:31.127Z,22.40
2022-11-24T10:41:13.955Z,21.20
2022-11-24T10:43:47.406Z,22.60
2022-11-24T10:46:32.539Z,22.60
2022-11-24T10:49:16.495Z,23.10
2022-11-24T10:52:18.383Z,20.20
2022-11-24T10:55:05.740Z,21.00
2022-11-24T10:57:41.908Z,20.30
2022-11-24T11:00:36.173Z,19.40
2022-11-24T11:03:24.799Z,21.60
2022-11-24T11:06:03.618Z,21.90
2022-11-24T11:08:37.259Z,22.20
2022-11-24T11:11:31.717Z,21.70
2022-11-24T11:14:07.921Z,23.00
2022-11-24T11:16:46.171Z,20.90
2022-11-24T11:22:28.709Z,22.30
2022-11-24T11:25:23.056Z,21.70
2022-11-24T11:28:28.449Z,21.30
2022-11-24T11:31:17.545Z,23.10
2022-11-24T11:34:07.333Z,22.00
2022-11-24T11:36:48.671Z,24.30
2022-11-24T11:39:34.047Z,23.30
2022-11-24T11:42:45.816Z,21.50
2022-11-24T11:45:23.056Z,21.00
2022-11-24T11:48:08.042Z,22.30
2022-11-24T11:54:02.049Z,25.20
2022-11-24T11:56:41.275Z,20.80
2022-11-24T11:59:43.168Z,21.60
2022-11-24T12:03:06.945Z,20.70
2022-11-24T12:05:58.317Z,22.30
2022-11-24T12:09:18.589Z,22.70
2022-11-24T12:11:51.710Z,22.10
2022-11-24T12:14:43.317Z,19.40
2022-11-24T12:17:30.918Z,21.50
2022-11-24T12:20:31.399Z,22.50
2022-11-24T12:23:22.372Z,20.30
2022-11-24T12:26:07.590Z,21.00
2022-11-24T12:28:59.075Z,21.30
2022-11-24T12:31:43.315Z,21.90
2022-11-24T12:34:42.098Z,21.70
2022-11-24T12:37:47.339Z,22.00
2022-11-24T12:40:46.670Z,22.40
2022-11-24T12:43:31.623Z,22.00
2022-11-24T12:46:17.747Z,21.10
2022-11-24T12:49:11.045Z,22.40
2022-11-24T12:51:50.685Z,22.40
2022-11-24T12:54:27.490Z,22.70
2022-11-24T12:57:09.605Z,23.10
2022-11-24T12:59:53.260Z,22.50
2022-11-24T13:02:46.665Z,23.40
2022-11-24T13:05:30.120Z,22.30
2022-11-24T13:08:07.742Z,22.10
2022-11-24T13:10:58.824Z,23.20
2022-11-24T13:14:00.127Z,23.00
2022-11-24T13:16:37.167Z,24.60
2022-11-24T13:19:21.825Z,24.00
2022-11-24T13:22:15.536Z,24.20
2022-11-24T13:25:05.857Z,22.30
2022-11-24T13:27:55.735Z,24.70
2022-11-24T13:31:10.070Z,23.70
2022-11-24T13:33:45.517Z,24.00
2022-11-24T13:36:53.845Z,21.00
2022-11-24T13:39:52.644Z,23.70
2022-11-24T13:42:43.428Z,23.20
2022-11-24T13:45:52.573Z,25.10
2022-11-24T13:49:01.731Z,20.90
2022-11-24T13:51:35.570Z,23.50
2022-11-24T13:54:15.496Z,25.80
2022-11-24T13:56:49.360Z,25.00
2022-11-24T13:59:35.810Z,24.20
2022-11-24T14:02:26.948Z,27.10
2022-11-24T14:05:01.478Z,22.40
2022-11-24T14:07:36.361Z,20.80
2022-11-24T14:10:19.573Z,22.90
2022-11-24T14:13:25.579Z,24.50
2022-11-24T14:16:18.089Z,24.10
2022-11-24T14:18:53.444Z,23.80
2022-11-24T14:21:38.740Z,22.70
2022-11-24T14:24:39.950Z,24.30
2022-11-24T14:27:21.680Z,24.90
2022-11-24T14:30:01.880Z,22.70
2022-11-24T14:32:35.643Z,23.70
2022-11-24T14:35:27.372Z,27.10
2022-11-24T14:38:02.947Z,24.80
2022-11-24T14:40:50.395Z,28.10
2022-11-24T14:43:35.010Z,30.00
2022-11-24T14:46:19.633Z,25.40
2022-11-24T14:48:55.892Z,27.30
2022-11-24T14:51:34.700Z,24.20
2022-11-24T14:54:19.839Z,27.00
2022-11-24T14:57:06.358Z,25.50
2022-11-24T14:59:40.754Z,23.70
2022-11-24T15:02:47.828Z,25.90
2022-11-24T15:05:22.595Z,23.90
2022-11-24T15:08:05.039Z,24.80
2022-11-24T15:10:42.498Z,23.30
2022-11-24T15:13:25.265Z,24.60
2022-11-24T15:16:03.908Z,24.20
2022-11-24T15:18:44.808Z,24.20
2022-11-24T15:21:32.072Z,22.90
2022-11-24T15:24:20.934Z,22.50
2022-11-24T15:27:02.218Z,23.90
2022-11-24T15:29:36.036Z,24.10
2022-11-24T15:32:17.330Z,23.80
2022-11-24T15:34:50.514Z,22.30
2022-11-24T15:37:23.591Z,21.90
2022-11-24T15:39:56.638Z,21.80
2022-11-24T15:42:29.489Z,22.90
2022-11-24T15:45:03.618Z,23.10
2022-11-24T15:47:36.959Z,22.30
2022-11-24T15:50:13.306Z,23.70
2022-11-24T15:52:47.574Z,23.30
2022-11-24T15:55:25.568Z,21.70
2022-11-24T15:57:59.821Z,23.80
2022-11-24T16:00:34.242Z,26.30
2022-11-24T16:03:38.338Z,25.30
2022-11-24T16:06:02.889Z,25.50
2022-11-24T16:08:36.998Z,26.30
2022-11-24T16:11:10.159Z,23.90
2022-11-24T16:13:50.109Z,24.90
2022-11-24T16:16:26.716Z,26.90
2022-11-24T16:19:01.734Z,26.60
2022-11-24T16:21:35.503Z,25.20
2022-11-24T16:24:10.810Z,29.30
2022-11-24T16:26:44.947Z,25.70
2022-11-24T16:29:21.486Z,28.20
2022-11-24T16:31:56.225Z,27.70
2022-11-24T16:34:29.758Z,24.50
2022-11-24T16:37:03.569Z,24.10
2022-11-24T16:39:36.812Z,23.50
2022-11-24T16:42:10.181Z,25.90
2022-11-24T16:44:43.717Z,21.90
2022-11-24T16:47:17.406Z,21.30
2022-11-24T16:49:51.888Z,26.10
2022-11-24T16:52:26.354Z,27.80
2022-11-24T16:55:01.956Z,26.40
2022-11-24T16:57:36.767Z,24.10
2022-11-24T17:00:13.720Z,27.60
2022-11-24T17:02:48.269Z,27.80
2022-11-24T17:05:21.825Z,35.20
2022-11-24T17:07:55.602Z,25.40
2022-11-24T17:10:29.489Z,26.40
2022-11-24T17:13:03.648Z,26.70
2022-11-24T17:15:45.322Z,26.20
2022-11-24T17:18:25.421Z,26.70
2022-11-24T17:21:07.754Z,25.80
2022-11-24T17:23:43.167Z,26.40
2022-11-24T17:26:19.922Z,32.80
2022-11-24T17:28:52.910Z,27.40
2022-11-24T17:31:28.678Z,25.90
2022-11-24T17:34:04.065Z,25.00
2022-11-24T17:36:39.055Z,29.20
2022-11-24T17:39:12.964Z,27.80
2022-11-24T17:41:47.371Z,25.80
2022-11-24T17:44:20.921Z,27.70
2022-11-24T17:46:54.616Z,27.30
2022-11-24T17:49:28.311Z,27.70
2022-11-24T17:52:01.886Z,27.50
2022-11-24T17:54:50.234Z,24.70
2022-11-24T17:57:26.950Z,29.40
2022-11-24T18:00:00.642Z,29.80
2022-11-24T18:02:34.234Z,25.20
2022-11-24T18:05:09.166Z,27.50
2022-11-24T18:07:42.436Z,27.30
2022-11-24T18:10:16.635Z,27.40
2022-11-24T18:12:50.626Z,29.20
2022-11-24T18:15:23.794Z,26.30
2022-11-24T18:17:57.930Z,26.80
2022-11-24T18:20:33.006Z,25.60
2022-11-24T18:23:06.381Z,26.40
2022-11-24T18:25:39.587Z,28.00
2022-11-24T18:28:13.345Z,28.80
2022-11-24T18:30:46.595Z,26.80
2022-11-24T18:33:21.306Z,24.00
2022-11-24T18:36:04.907Z,27.90
2022-11-24T18:38:40.331Z,27.40
2022-11-24T18:41:15.589Z,25.00
2022-11-24T18:43:49.568Z,26.20
2022-11-24T18:46:23.771Z,25.30
2022-11-24T18:48:58.003Z,23.50
2022-11-24T18:51:31.425Z,24.70
2022-11-24T18:54:05.742Z,38.20
2022-11-24T18:56:38.980Z,29.90
2022-11-24T18:59:13.882Z,27.00
2022-11-24T19:01:47.648Z,25.10
2022-11-24T19:04:21.885Z,27.90
2022-11-24T19:06:55.617Z,29.30
2022-11-24T19:09:30.191Z,25.60
2022-11-24T19:12:04.236Z,25.20
2022-11-24T19:14:38.412Z,31.00
2022-11-24T19:17:11.446Z,29.70
2022-11-24T19:19:45.474Z,26.10
2022-11-24T19:22:19.781Z,27.60
2022-11-24T19:24:53.205Z,26.60
2022-11-24T19:27:26.398Z,28.70
2022-11-24T19:30:00.180Z,32.00
2022-11-24T19:32:35.845Z,35.80
2022-11-24T19:35:10.613Z,39.30
2022-11-24T19:37:43.542Z,27.70
2022-11-24T19:40:18.767Z,27.90
2022-11-24T19:42:52.798Z,25.50
2022-11-24T19:45:26.096Z,26.50
2022-11-24T19:47:59.765Z,26.50
2022-11-24T19:50:32.466Z,23.90
2022-11-24T19:53:05.793Z,28.00
2022-11-24T19:55:39.056Z,26.00
2022-11-24T19:58:12.763Z,24.40
2022-11-24T20:00:46.806Z,24.90
2022-11-24T20:03:20.026Z,23.50
2022-11-24T20:06:00.695Z,26.00
2022-11-24T20:08:36.434Z,25.50
2022-11-24T20:11:13.634Z,23.90
2022-11-24T20:13:53.066Z,26.40
2022-11-24T20:16:30.045Z,22.70
2022-11-24T20:19:06.090Z,26.90
2022-11-24T20:21:41.723Z,26.50
2022-11-24T20:24:18.199Z,26.40
2022-11-24T20:26:54.725Z,23.10
2022-11-24T20:29:29.468Z,22.90
2022-11-24T20:32:02.777Z,25.00
2022-11-24T20:34:37.767Z,24.30
2022-11-24T20:37:13.593Z,25.60
2022-11-24T20:39:48.011Z,25.90
2022-11-24T20:42:21.020Z,22.60
2022-11-24T20:44:54.315Z,26.00
2022-11-24T20:47:27.962Z,26.00
2022-11-24T20:50:01.188Z,26.10
2022-11-24T20:52:35.009Z,24.40
2022-11-24T20:55:10.050Z,23.70
2022-11-24T20:57:43.209Z,25.70
2022-11-24T21:00:18.241Z,24.40
2022-11-24T21:02:51.745Z,25.10
2022-11-24T21:05:26.850Z,31.00
2022-11-24T21:07:59.781Z,28.00
2022-11-24T21:10:33.047Z,28.70
2022-11-24T21:13:07.091Z,26.80
2022-11-24T21:15:40.461Z,26.40
2022-11-24T21:18:14.621Z,26.60
2022-11-24T21:20:49.367Z,26.70
2022-11-24T21:23:22.476Z,25.20
2022-11-24T21:26:05.175Z,24.30
2022-11-24T21:28:39.267Z,26.20
2022-11-24T21:31:16.973Z,27.40
2022-11-24T21:33:52.302Z,24.50
2022-11-24T21:36:28.079Z,26.10
2022-11-24T21:39:03.134Z,27.00
2022-11-24T21:41:37.922Z,25.50
2022-11-24T21:44:11.731Z,25.90
2022-11-24T21:46:52.465Z,27.90
2022-11-24T21:49:29.333Z,21.90
2022-11-24T21:52:02.874Z,24.10
2022-11-24T21:54:36.868Z,24.50
2022-11-24T23:04:30.470Z,21.30
2022-11-24T23:07:04.276Z,26.60
2022-11-24T23:09:38.241Z,27.40
2022-11-24T23:12:12.313Z,26.00
2022-11-24T23:14:46.178Z,25.40
2022-11-24T23:17:20.030Z,25.90
2022-11-24T23:19:53.483Z,26.20
2022-11-24T23:22:26.881Z,24.60
2022-11-24T23:25:00.596Z,25.70
2022-11-24T23:27:34.350Z,24.80
2022-11-24T23:30:09.830Z,22.40
2022-11-24T23:32:43.868Z,23.60
2022-11-24T23:35:17.541Z,27.60
2022-11-24T23:38:07.562Z,26.90
2022-11-24T23:40:42.378Z,25.60
2022-11-24T23:43:15.766Z,25.20
2022-11-24T23:45:49.711Z,26.60
2022-11-24T23:48:23.477Z,30.60
2022-11-24T23:50:57.432Z,26.00
2022-11-24T23:53:34.484Z,26.30
2022-11-24T23:56:08.939Z,25.30
2022-11-24T23:58:43.103Z,24.00
